createdAt,value
2018-07-08T00:00:36.766Z,893.88
2018-07-08T00:01:36.751Z,893.86
2018-07-08T00:02:36.741Z,893.87
2018-07-08T00:03:36.729Z,893.83
2018-07-08T00:04:57.718Z,893.80
2018-07-08T00:05:36.718Z,893.81
2018-07-08T00:06:36.705Z,893.80
2018-07-08T00:07:36.690Z,893.80
2018-07-08T00:08:36.687Z,893.79
2018-07-08T00:09:36.668Z,893.77
2018-07-08T00:10:57.673Z,893.78
2018-07-08T00:11:36.656Z,893.76
2018-07-08T00:12:36.644Z,893.75
2018-07-08T00:13:36.627Z,893.75
2018-07-08T00:14:36.621Z,893.76
2018-07-08T00:15:36.612Z,893.76
2018-07-08T00:16:57.600Z,893.75
2018-07-08T00:17:36.595Z,893.73
2018-07-08T00:18:36.585Z,893.69
2018-07-08T00:19:36.571Z,893.69
2018-07-08T00:20:36.563Z,893.70
2018-07-08T00:21:36.552Z,893.70
2018-07-08T00:22:57.548Z,893.65
2018-07-08T00:23:36.534Z,893.64
2018-07-08T00:24:36.524Z,893.63
2018-07-08T00:25:36.510Z,893.65
2018-07-08T00:26:36.504Z,893.63
2018-07-08T00:27:36.491Z,893.64
2018-07-08T00:28:57.483Z,893.63
2018-07-08T00:29:36.465Z,893.62
2018-07-08T00:30:36.467Z,893.64
2018-07-08T00:31:36.447Z,893.59
2018-07-08T00:32:36.439Z,893.60
2018-07-08T00:33:36.426Z,893.61
2018-07-08T00:34:57.419Z,893.61
2018-07-08T00:35:36.419Z,893.63
2018-07-08T00:36:36.394Z,893.60
2018-07-08T00:37:36.385Z,893.58
2018-07-08T00:38:36.377Z,893.58
2018-07-08T00:39:36.367Z,893.57
2018-07-08T00:40:57.360Z,893.57
2018-07-08T00:41:36.344Z,893.57
2018-07-08T00:42:36.336Z,893.59
2018-07-08T00:43:36.323Z,893.63
2018-07-08T00:44:36.316Z,893.58
2018-07-08T00:45:36.310Z,893.59
2018-07-08T00:46:57.298Z,893.60
2018-07-08T00:47:36.284Z,893.59
2018-07-08T00:48:36.276Z,893.56
2018-07-08T00:49:36.261Z,893.55
2018-07-08T00:50:36.260Z,893.56
2018-07-08T00:51:36.242Z,893.53
2018-07-08T00:52:57.236Z,893.53
2018-07-08T00:53:36.220Z,893.51
2018-07-08T00:54:36.213Z,893.52
2018-07-08T00:55:36.202Z,893.53
2018-07-08T00:56:36.193Z,893.48
2018-07-08T00:57:36.177Z,893.49
2018-07-08T00:58:57.173Z,893.46
2018-07-08T00:59:36.165Z,893.50
2018-07-08T01:00:36.146Z,893.48
2018-07-08T01:01:36.171Z,893.51
2018-07-08T01:02:36.131Z,893.48
2018-07-08T01:03:36.120Z,893.45
2018-07-08T01:04:57.114Z,893.49
2018-07-08T01:05:36.101Z,893.45
2018-07-08T01:06:36.087Z,893.50
2018-07-08T01:07:36.079Z,893.51
2018-07-08T01:08:36.068Z,893.45
2018-07-08T01:09:36.055Z,893.49
2018-07-08T01:10:57.054Z,893.50
2018-07-08T01:11:36.038Z,893.55
2018-07-08T01:12:36.026Z,893.54
2018-07-08T01:13:36.019Z,893.53
2018-07-08T01:14:36.004Z,893.53
2018-07-08T01:15:35.996Z,893.55
2018-07-08T01:16:56.987Z,893.57
2018-07-08T01:17:35.976Z,893.56
2018-07-08T01:18:35.966Z,893.56
2018-07-08T01:19:35.950Z,893.60
2018-07-08T01:20:35.945Z,893.61
2018-07-08T01:21:35.937Z,893.61
2018-07-08T01:22:56.929Z,893.60
2018-07-08T01:23:35.914Z,893.60
2018-07-08T01:24:35.915Z,893.59
2018-07-08T01:25:35.892Z,893.61
2018-07-08T01:26:35.882Z,893.59
2018-07-08T01:27:35.908Z,893.57
2018-07-08T01:28:56.866Z,893.59
2018-07-08T01:29:35.855Z,893.59
2018-07-08T01:30:35.839Z,893.60
2018-07-08T01:31:35.834Z,893.60
2018-07-08T01:32:35.815Z,893.61
2018-07-08T01:33:35.806Z,893.60
2018-07-08T01:34:56.801Z,893.58
2018-07-08T01:35:35.795Z,893.58
2018-07-08T01:36:35.784Z,893.57
2018-07-08T01:37:35.769Z,893.56
2018-07-08T01:38:35.758Z,893.57
2018-07-08T01:39:35.746Z,893.55
2018-07-08T01:40:56.739Z,893.56
2018-07-08T01:41:35.722Z,893.59
2018-07-08T01:42:35.720Z,893.60
2018-07-08T01:43:35.701Z,893.55
2018-07-08T01:44:35.691Z,893.59
2018-07-08T01:45:35.681Z,893.57
2018-07-08T01:46:56.683Z,893.56
2018-07-08T01:47:35.662Z,893.60
2018-07-08T01:48:35.650Z,893.61
2018-07-08T01:49:35.641Z,893.58
2018-07-08T01:50:35.629Z,893.54
2018-07-08T01:51:35.625Z,893.55
2018-07-08T01:52:56.618Z,893.55
2018-07-08T01:53:35.608Z,893.56
2018-07-08T01:54:35.594Z,893.54
2018-07-08T01:55:35.581Z,893.60
2018-07-08T01:56:35.561Z,893.57
2018-07-08T01:57:35.558Z,893.51
2018-07-08T01:58:56.554Z,893.54
2018-07-08T01:59:35.537Z,893.51
2018-07-08T02:00:35.535Z,893.52
2018-07-08T02:01:35.521Z,893.54
2018-07-08T02:02:35.501Z,893.57
2018-07-08T02:03:35.496Z,893.54
2018-07-08T02:04:56.489Z,893.50
2018-07-08T02:05:35.473Z,893.45
2018-07-08T02:06:35.470Z,893.43
2018-07-08T02:07:35.449Z,893.45
2018-07-08T02:08:35.438Z,893.46
2018-07-08T02:09:35.437Z,893.49
2018-07-08T02:10:56.424Z,893.48
2018-07-08T02:11:35.411Z,893.50
2018-07-08T02:12:35.399Z,893.51
2018-07-08T02:13:35.393Z,893.55
2018-07-08T02:14:35.375Z,893.51
2018-07-08T02:15:35.374Z,893.49
2018-07-08T02:16:56.357Z,893.53
2018-07-08T02:17:35.345Z,893.47
2018-07-08T02:18:35.335Z,893.52
2018-07-08T02:19:35.325Z,893.49
2018-07-08T02:20:35.313Z,893.45
2018-07-08T02:21:35.305Z,893.45
2018-07-08T02:22:56.307Z,893.46
2018-07-08T02:23:35.287Z,893.44
2018-07-08T02:24:35.272Z,893.45
2018-07-08T02:25:35.260Z,893.46
2018-07-08T02:26:35.252Z,893.43
2018-07-08T02:27:35.239Z,893.45
2018-07-08T02:28:56.254Z,893.45
2018-07-08T02:29:35.216Z,893.43
2018-07-08T02:30:35.208Z,893.47
2018-07-08T02:31:35.198Z,893.48
2018-07-08T02:32:35.185Z,893.48
2018-07-08T02:33:35.177Z,893.40
2018-07-08T02:34:56.184Z,893.45
2018-07-08T02:35:35.155Z,893.44
2018-07-08T02:36:35.147Z,893.42
2018-07-08T02:37:35.135Z,893.45
2018-07-08T02:38:35.127Z,893.45
2018-07-08T02:39:35.119Z,893.41
2018-07-08T02:40:56.113Z,893.43
2018-07-08T02:41:35.094Z,893.44
2018-07-08T02:42:35.079Z,893.42
2018-07-08T02:43:35.070Z,893.43
2018-07-08T02:44:35.059Z,893.40
2018-07-08T02:45:35.050Z,893.43
2018-07-08T02:46:56.044Z,893.43
2018-07-08T02:47:35.030Z,893.40
2018-07-08T02:48:35.027Z,893.44
2018-07-08T02:49:35.008Z,893.37
2018-07-08T02:50:35.008Z,893.41
2018-07-08T02:51:34.990Z,893.42
2018-07-08T02:52:55.985Z,893.43
2018-07-08T02:53:34.970Z,893.37
2018-07-08T02:54:34.959Z,893.38
2018-07-08T02:55:34.952Z,893.37
2018-07-08T02:56:34.934Z,893.36
2018-07-08T02:57:34.920Z,893.34
2018-07-08T02:58:55.918Z,893.33
2018-07-08T02:59:34.902Z,893.34
2018-07-08T03:00:34.895Z,893.33
2018-07-08T03:01:34.903Z,893.31
2018-07-08T03:02:34.874Z,893.31
2018-07-08T03:03:34.866Z,893.35
2018-07-08T03:04:55.853Z,893.34
2018-07-08T03:05:34.838Z,893.33
2018-07-08T03:06:34.829Z,893.35
2018-07-08T03:07:34.836Z,893.37
2018-07-08T03:08:34.812Z,893.36
2018-07-08T03:09:34.796Z,893.37
2018-07-08T03:10:55.802Z,893.37
2018-07-08T03:11:34.778Z,893.35
2018-07-08T03:12:34.763Z,893.39
2018-07-08T03:13:34.755Z,893.36
2018-07-08T03:14:34.739Z,893.37
2018-07-08T03:15:34.732Z,893.38
2018-07-08T03:16:55.721Z,893.41
2018-07-08T03:17:34.704Z,893.41
2018-07-08T03:18:34.695Z,893.40
2018-07-08T03:19:34.688Z,893.40
2018-07-08T03:20:34.670Z,893.39
2018-07-08T03:21:34.664Z,893.38
2018-07-08T03:22:55.666Z,893.35
2018-07-08T03:23:34.653Z,893.36
2018-07-08T03:24:34.632Z,893.34
2018-07-08T03:25:34.626Z,893.34
2018-07-08T03:26:34.615Z,893.32
2018-07-08T03:27:34.614Z,893.33
2018-07-08T03:28:55.597Z,893.34
2018-07-08T03:29:34.576Z,893.34
2018-07-08T03:30:34.575Z,893.33
2018-07-08T03:31:34.562Z,893.33
2018-07-08T03:32:34.549Z,893.30
2018-07-08T03:33:34.607Z,893.33
2018-07-08T03:34:55.533Z,893.33
2018-07-08T03:35:34.516Z,893.32
2018-07-08T03:36:34.500Z,893.32
2018-07-08T03:37:34.498Z,893.33
2018-07-08T03:38:34.488Z,893.33
2018-07-08T03:39:34.477Z,893.34
2018-07-08T03:40:55.463Z,893.31
2018-07-08T03:41:34.449Z,893.29
2018-07-08T03:42:34.456Z,893.29
2018-07-08T03:43:34.428Z,893.32
2018-07-08T03:44:34.414Z,893.30
2018-07-08T03:45:34.402Z,893.31
2018-07-08T03:46:55.400Z,893.36
2018-07-08T03:47:34.386Z,893.33
2018-07-08T03:48:34.376Z,893.35
2018-07-08T03:49:34.364Z,893.36
2018-07-08T03:50:34.356Z,893.38
2018-07-08T03:51:34.341Z,893.34
2018-07-08T03:52:55.339Z,893.38
2018-07-08T03:53:34.320Z,893.38
2018-07-08T03:54:34.311Z,893.36
2018-07-08T03:55:34.299Z,893.36
2018-07-08T03:56:34.293Z,893.39
2018-07-08T03:57:34.275Z,893.37
2018-07-08T03:58:55.273Z,893.39
2018-07-08T03:59:34.260Z,893.39
2018-07-08T04:00:34.246Z,893.38
2018-07-08T04:01:34.236Z,893.36
2018-07-08T04:02:34.230Z,893.37
2018-07-08T04:03:34.212Z,893.38
2018-07-08T04:04:55.204Z,893.37
2018-07-08T04:05:34.186Z,893.37
2018-07-08T04:06:34.186Z,893.37
2018-07-08T04:07:34.169Z,893.38
2018-07-08T04:08:34.155Z,893.43
2018-07-08T04:09:34.143Z,893.38
2018-07-08T04:10:55.141Z,893.42
2018-07-08T04:11:34.126Z,893.39
2018-07-08T04:12:34.118Z,893.39
2018-07-08T04:13:34.108Z,893.40
2018-07-08T04:14:34.094Z,893.44
2018-07-08T04:15:34.083Z,893.43
2018-07-08T04:16:55.073Z,893.45
2018-07-08T04:17:34.063Z,893.45
2018-07-08T04:18:34.051Z,893.43
2018-07-08T04:19:34.041Z,893.40
2018-07-08T04:20:34.027Z,893.42
2018-07-08T04:21:34.017Z,893.40
2018-07-08T04:22:55.012Z,893.41
2018-07-08T04:23:33.998Z,893.43
2018-07-08T04:24:33.984Z,893.42
2018-07-08T04:25:33.976Z,893.41
2018-07-08T04:26:33.963Z,893.45
2018-07-08T04:27:36.836Z,893.42
2018-07-08T04:28:54.946Z,893.43
2018-07-08T04:29:33.930Z,893.43
2018-07-08T04:30:33.932Z,893.38
2018-07-08T04:31:33.905Z,893.39
2018-07-08T04:32:33.899Z,893.40
2018-07-08T04:33:33.893Z,893.37
2018-07-08T04:34:54.883Z,893.38
2018-07-08T04:35:33.866Z,893.37
2018-07-08T04:36:33.857Z,893.41
2018-07-08T04:37:33.849Z,893.40
2018-07-08T04:38:33.829Z,893.42
2018-07-08T04:39:33.827Z,893.40
2018-07-08T04:40:54.818Z,893.41
2018-07-08T04:41:33.804Z,893.44
2018-07-08T04:42:33.794Z,893.40
2018-07-08T04:43:33.779Z,893.44
2018-07-08T04:44:33.770Z,893.45
2018-07-08T04:45:33.759Z,893.48
2018-07-08T04:46:54.753Z,893.53
2018-07-08T04:47:33.736Z,893.50
2018-07-08T04:48:33.728Z,893.51
2018-07-08T04:49:33.716Z,893.52
2018-07-08T04:50:33.708Z,893.53
2018-07-08T04:51:33.690Z,893.54
2018-07-08T04:52:54.688Z,893.56
2018-07-08T04:53:33.672Z,893.53
2018-07-08T04:54:33.666Z,893.55
2018-07-08T04:55:33.647Z,893.53
2018-07-08T04:56:33.639Z,893.59
2018-07-08T04:57:33.628Z,893.57
2018-07-08T04:58:54.626Z,893.57
2018-07-08T04:59:33.611Z,893.53
2018-07-08T05:00:33.594Z,893.54
2018-07-08T05:01:33.581Z,893.55
2018-07-08T05:02:33.572Z,893.55
2018-07-08T05:03:33.567Z,893.57
2018-07-08T05:04:54.554Z,893.56
2018-07-08T05:05:33.538Z,893.57
2018-07-08T05:06:33.545Z,893.59
2018-07-08T05:07:33.523Z,893.60
2018-07-08T05:08:33.512Z,893.57
2018-07-08T05:09:33.496Z,893.55
2018-07-08T05:10:54.492Z,893.59
2018-07-08T05:11:33.480Z,893.58
2018-07-08T05:12:33.466Z,893.59
2018-07-08T05:13:33.454Z,893.56
2018-07-08T05:14:33.450Z,893.56
2018-07-08T05:15:33.435Z,893.56
2018-07-08T05:16:54.431Z,893.57
2018-07-08T05:17:33.414Z,893.55
2018-07-08T05:18:33.406Z,893.52
2018-07-08T05:19:33.396Z,893.50
2018-07-08T05:20:33.385Z,893.50
2018-07-08T05:21:33.370Z,893.47
2018-07-08T05:22:55.286Z,893.47
2018-07-08T05:23:33.349Z,893.46
2018-07-08T05:24:33.352Z,893.47
2018-07-08T05:25:33.327Z,893.44
2018-07-08T05:26:33.317Z,893.40
2018-07-08T05:27:33.308Z,893.43
2018-07-08T05:28:54.297Z,893.40
2018-07-08T05:29:33.285Z,893.43
2018-07-08T05:30:33.273Z,893.42
2018-07-08T05:31:33.278Z,893.42
2018-07-08T05:32:33.248Z,893.43
2018-07-08T05:33:33.244Z,893.41
2018-07-08T05:34:54.236Z,893.40
2018-07-08T05:35:33.233Z,893.43
2018-07-08T05:36:33.243Z,893.38
2018-07-08T05:37:33.199Z,893.41
2018-07-08T05:38:33.190Z,893.41
2018-07-08T05:39:33.180Z,893.39
2018-07-08T05:40:54.176Z,893.42
2018-07-08T05:41:33.154Z,893.39
2018-07-08T05:42:33.148Z,893.40
2018-07-08T05:43:33.134Z,893.39
2018-07-08T05:44:33.120Z,893.38
2018-07-08T05:45:33.118Z,893.36
2018-07-08T05:46:54.106Z,893.41
2018-07-08T05:47:33.089Z,893.38
2018-07-08T05:48:33.082Z,893.43
2018-07-08T05:49:33.066Z,893.39
2018-07-08T05:50:33.112Z,893.38
2018-07-08T05:51:33.054Z,893.36
2018-07-08T05:52:54.046Z,893.34
2018-07-08T05:53:33.030Z,893.37
2018-07-08T05:54:33.020Z,893.36
2018-07-08T05:55:33.011Z,893.35
2018-07-08T05:56:32.991Z,893.33
2018-07-08T05:57:32.983Z,893.33
2018-07-08T05:58:53.977Z,893.33
2018-07-08T05:59:32.966Z,893.30
2018-07-08T06:00:32.962Z,893.25
2018-07-08T06:01:32.941Z,893.24
2018-07-08T06:02:32.932Z,893.19
2018-07-08T06:03:32.927Z,893.21
2018-07-08T06:04:53.915Z,893.21
2018-07-08T06:05:32.900Z,893.22
2018-07-08T06:06:32.895Z,893.23
2018-07-08T06:07:32.907Z,893.31
2018-07-08T06:08:32.866Z,893.28
2018-07-08T06:09:32.859Z,893.28
2018-07-08T06:10:53.844Z,893.26
2018-07-08T06:11:32.841Z,893.28
2018-07-08T06:12:32.824Z,893.30
2018-07-08T06:13:32.817Z,893.31
2018-07-08T06:14:32.811Z,893.32
2018-07-08T06:15:32.792Z,893.30
2018-07-08T06:16:53.791Z,893.34
2018-07-08T06:17:32.779Z,893.33
2018-07-08T06:18:32.764Z,893.30
2018-07-08T06:19:32.770Z,893.31
2018-07-08T06:20:32.737Z,893.25
2018-07-08T06:21:32.728Z,893.28
2018-07-08T06:22:53.724Z,893.26
2018-07-08T06:23:32.713Z,893.27
2018-07-08T06:24:32.699Z,893.25
2018-07-08T06:25:32.689Z,893.22
2018-07-08T06:26:32.694Z,893.26
2018-07-08T06:27:32.671Z,893.28
2018-07-08T06:28:53.665Z,893.31
2018-07-08T06:29:32.653Z,893.27
2018-07-08T06:30:32.633Z,893.28
2018-07-08T06:31:32.624Z,893.28
2018-07-08T06:32:32.618Z,893.27
2018-07-08T06:33:32.616Z,893.30
2018-07-08T06:34:53.609Z,893.28
2018-07-08T06:35:32.590Z,893.25
2018-07-08T06:36:32.575Z,893.27
2018-07-08T06:37:32.568Z,893.27
2018-07-08T06:38:32.557Z,893.23
2018-07-08T06:39:32.554Z,893.22
2018-07-08T06:40:53.545Z,893.22
2018-07-08T06:41:32.535Z,893.21
2018-07-08T06:42:32.522Z,893.15
2018-07-08T06:43:32.509Z,893.19
2018-07-08T06:44:32.504Z,893.20
2018-07-08T06:45:32.537Z,893.12
2018-07-08T06:46:53.487Z,893.14
2018-07-08T06:47:32.476Z,893.14
2018-07-08T06:48:32.464Z,893.13
2018-07-08T06:49:32.447Z,893.15
2018-07-08T06:50:32.442Z,893.19
2018-07-08T06:51:32.432Z,893.11
2018-07-08T06:52:53.434Z,893.16
2018-07-08T06:53:32.415Z,893.17
2018-07-08T06:54:32.411Z,893.17
2018-07-08T06:55:32.390Z,893.17
2018-07-08T06:56:32.387Z,893.19
2018-07-08T06:57:32.378Z,893.22
2018-07-08T06:58:53.375Z,893.20
2018-07-08T06:59:32.355Z,893.17
2018-07-08T07:00:32.362Z,893.18
2018-07-08T07:01:32.346Z,893.18
2018-07-08T07:02:32.324Z,893.19
2018-07-08T07:03:32.318Z,893.19
2018-07-08T07:04:53.316Z,893.22
2018-07-08T07:05:32.304Z,893.17
2018-07-08T07:06:32.298Z,893.17
2018-07-08T07:07:32.278Z,893.17
2018-07-08T07:08:32.273Z,893.15
2018-07-08T07:09:32.264Z,893.17
2018-07-08T07:10:53.265Z,893.16
2018-07-08T07:11:32.248Z,893.16
2018-07-08T07:12:32.243Z,893.17
2018-07-08T07:13:32.228Z,893.19
2018-07-08T07:14:32.222Z,893.19
2018-07-08T07:15:32.218Z,893.19
2018-07-08T07:16:53.212Z,893.18
2018-07-08T07:17:32.220Z,893.19
2018-07-08T07:18:32.188Z,893.15
2018-07-08T07:19:32.176Z,893.17
2018-07-08T07:20:32.165Z,893.15
2018-07-08T07:21:32.153Z,893.15
2018-07-08T07:22:53.163Z,893.13
2018-07-08T07:23:32.137Z,893.13
2018-07-08T07:24:32.127Z,893.08
2018-07-08T07:25:32.123Z,893.09
2018-07-08T07:26:32.112Z,893.12
2018-07-08T07:27:32.119Z,893.07
2018-07-08T07:28:53.100Z,893.09
2018-07-08T07:29:32.092Z,893.10
2018-07-08T07:30:32.077Z,893.08
2018-07-08T07:31:32.069Z,893.11
2018-07-08T07:32:32.059Z,893.09
2018-07-08T07:33:32.052Z,893.09
2018-07-08T07:34:53.052Z,893.07
2018-07-08T07:35:32.036Z,893.09
2018-07-08T07:36:32.028Z,893.05
2018-07-08T07:37:32.021Z,893.09
2018-07-08T07:38:32.008Z,893.07
2018-07-08T07:39:31.996Z,893.07
2018-07-08T07:40:52.994Z,893.10
2018-07-08T07:41:31.989Z,893.11
2018-07-08T07:42:31.972Z,893.06
2018-07-08T07:43:31.966Z,893.06
2018-07-08T07:44:31.963Z,893.08
2018-07-08T07:45:31.992Z,893.08
2018-07-08T07:46:52.946Z,893.05
2018-07-08T07:47:31.933Z,893.08
2018-07-08T07:48:31.921Z,893.08
2018-07-08T07:49:31.916Z,893.04
2018-07-08T07:50:31.909Z,893.03
2018-07-08T07:51:31.900Z,893.04
2018-07-08T07:52:52.896Z,893.09
2018-07-08T07:53:31.901Z,893.10
2018-07-08T07:54:31.876Z,893.07
2018-07-08T07:55:31.869Z,893.07
2018-07-08T07:56:31.859Z,893.04
2018-07-08T07:57:31.851Z,893.02
2018-07-08T07:58:52.900Z,893.01
2018-07-08T07:59:31.835Z,893.00
2018-07-08T08:00:31.826Z,892.96
2018-07-08T08:01:31.812Z,892.98
2018-07-08T08:02:31.804Z,893.01
2018-07-08T08:03:31.799Z,892.94
2018-07-08T08:04:52.794Z,892.93
2018-07-08T08:05:31.793Z,892.99
2018-07-08T08:06:31.770Z,892.93
2018-07-08T08:07:31.770Z,892.93
2018-07-08T08:08:31.758Z,892.93
2018-07-08T08:09:31.742Z,892.91
2018-07-08T08:10:52.743Z,892.91
2018-07-08T08:11:31.732Z,892.88
2018-07-08T08:12:31.723Z,892.85
2018-07-08T08:13:31.715Z,892.90
2018-07-08T08:14:31.707Z,892.86
2018-07-08T08:15:31.698Z,892.83
2018-07-08T08:16:52.696Z,892.85
2018-07-08T08:17:31.681Z,892.85
2018-07-08T08:18:31.668Z,892.85
2018-07-08T08:19:31.668Z,892.84
2018-07-08T08:20:31.658Z,892.83
2018-07-08T08:21:31.653Z,892.80
2018-07-08T08:22:52.642Z,892.81
2018-07-08T08:23:31.635Z,892.86
2018-07-08T08:24:31.626Z,892.82
2018-07-08T08:25:31.621Z,892.84
2018-07-08T08:26:31.682Z,892.81
2018-07-08T08:27:31.602Z,892.80
2018-07-08T08:28:52.599Z,892.78
2018-07-08T08:29:31.578Z,892.78
2018-07-08T08:30:31.579Z,892.79
2018-07-08T08:31:31.563Z,892.80
2018-07-08T08:32:31.565Z,892.75
2018-07-08T08:33:31.546Z,892.74
2018-07-08T08:34:52.552Z,892.77
2018-07-08T08:35:31.533Z,892.77
2018-07-08T08:36:31.529Z,892.72
2018-07-08T08:37:31.531Z,892.76
2018-07-08T08:38:31.509Z,892.74
2018-07-08T08:39:31.507Z,892.75
2018-07-08T08:40:52.490Z,892.72
2018-07-08T08:41:31.485Z,892.69
2018-07-08T08:42:31.480Z,892.69
2018-07-08T08:43:31.465Z,892.74
2018-07-08T08:44:31.460Z,892.68
2018-07-08T08:45:31.454Z,892.69
2018-07-08T08:46:52.454Z,892.69
2018-07-08T08:47:31.437Z,892.68
2018-07-08T08:48:31.436Z,892.65
2018-07-08T08:49:31.435Z,892.67
2018-07-08T08:50:31.417Z,892.60
2018-07-08T08:51:31.409Z,892.64
2018-07-08T08:52:52.422Z,892.56
2018-07-08T08:53:31.389Z,892.55
2018-07-08T08:54:31.385Z,892.60
2018-07-08T08:55:31.382Z,892.62
2018-07-08T08:56:31.368Z,892.64
2018-07-08T08:57:31.360Z,892.64
2018-07-08T08:58:52.364Z,892.65
2018-07-08T08:59:31.349Z,892.64
2018-07-08T09:00:31.341Z,892.66
2018-07-08T09:01:31.337Z,892.58
2018-07-08T09:02:31.333Z,892.61
2018-07-08T09:03:31.320Z,892.65
2018-07-08T09:04:52.316Z,892.63
2018-07-08T09:05:31.309Z,892.65
2018-07-08T09:06:31.292Z,892.62
2018-07-08T09:07:31.285Z,892.62
2018-07-08T09:08:31.276Z,892.63
2018-07-08T09:09:31.272Z,892.64
2018-07-08T09:10:52.353Z,892.61
2018-07-08T09:11:31.255Z,892.61
2018-07-08T09:12:31.242Z,892.56
2018-07-08T09:13:31.243Z,892.57
2018-07-08T09:14:31.231Z,892.61
2018-07-08T09:15:31.229Z,892.59
2018-07-08T09:16:52.227Z,892.60
2018-07-08T09:17:31.211Z,892.60
2018-07-08T09:18:31.201Z,892.59
2018-07-08T09:19:31.200Z,892.55
2018-07-08T09:20:31.183Z,892.59
2018-07-08T09:21:31.178Z,892.59
2018-07-08T09:22:52.181Z,892.59
2018-07-08T09:23:31.166Z,892.58
2018-07-08T09:24:31.165Z,892.58
2018-07-08T09:25:31.161Z,892.57
2018-07-08T09:26:31.146Z,892.58
2018-07-08T09:27:31.137Z,892.57
2018-07-08T09:28:52.140Z,892.53
2018-07-08T09:29:31.122Z,892.51
2018-07-08T09:30:31.121Z,892.50
2018-07-08T09:31:31.110Z,892.49
2018-07-08T09:32:31.100Z,892.49
2018-07-08T09:33:31.088Z,892.46
2018-07-08T09:34:52.095Z,892.48
2018-07-08T09:35:31.101Z,892.47
2018-07-08T09:36:31.071Z,892.45
2018-07-08T09:37:31.065Z,892.45
2018-07-08T09:38:31.091Z,892.45
2018-07-08T09:39:31.054Z,892.45
2018-07-08T09:40:52.055Z,892.44
2018-07-08T09:41:31.039Z,892.45
2018-07-08T09:42:31.038Z,892.46
2018-07-08T09:43:31.020Z,892.46
2018-07-08T09:44:31.015Z,892.44
2018-07-08T09:45:31.014Z,892.44
2018-07-08T09:46:52.008Z,892.43
2018-07-08T09:47:30.990Z,892.44
2018-07-08T09:48:30.990Z,892.46
2018-07-08T09:49:30.984Z,892.45
2018-07-08T09:50:30.971Z,892.44
2018-07-08T09:51:30.967Z,892.41
2018-07-08T09:52:51.965Z,892.43
2018-07-08T09:53:30.949Z,892.41
2018-07-08T09:54:30.951Z,892.43
2018-07-08T09:55:30.940Z,892.47
2018-07-08T09:56:30.935Z,892.44
2018-07-08T09:57:30.943Z,892.45
2018-07-08T09:58:51.923Z,892.42
2018-07-08T09:59:30.915Z,892.39
2018-07-08T10:00:30.901Z,892.41
2018-07-08T10:01:30.894Z,892.43
2018-07-08T10:02:30.884Z,892.38
2018-07-08T10:03:30.879Z,892.40
2018-07-08T10:04:51.896Z,892.41
2018-07-08T10:05:30.869Z,892.44
2018-07-08T10:06:30.868Z,892.42
2018-07-08T10:07:30.868Z,892.41
2018-07-08T10:08:30.846Z,892.41
2018-07-08T10:09:30.836Z,892.43
2018-07-08T10:10:51.920Z,892.40
2018-07-08T10:11:30.831Z,892.40
2018-07-08T10:12:30.822Z,892.39
2018-07-08T10:13:30.805Z,892.36
2018-07-08T10:14:30.809Z,892.37
2018-07-08T10:15:30.805Z,892.34
2018-07-08T10:16:51.802Z,892.37
2018-07-08T10:17:30.796Z,892.36
2018-07-08T10:18:30.779Z,892.27
2018-07-08T10:19:30.819Z,892.30
2018-07-08T10:20:30.763Z,892.30
2018-07-08T10:21:30.765Z,892.37
2018-07-08T10:22:51.790Z,892.37
2018-07-08T10:23:30.745Z,892.32
2018-07-08T10:24:30.734Z,892.38
2018-07-08T10:25:30.734Z,892.33
2018-07-08T10:26:30.730Z,892.33
2018-07-08T10:27:30.715Z,892.28
2018-07-08T10:28:51.717Z,892.35
2018-07-08T10:29:30.712Z,892.39
2018-07-08T10:30:30.704Z,892.36
2018-07-08T10:31:30.685Z,892.36
2018-07-08T10:32:30.687Z,892.36
2018-07-08T10:33:30.676Z,892.37
2018-07-08T10:34:51.681Z,892.38
2018-07-08T10:35:30.665Z,892.37
2018-07-08T10:36:30.711Z,892.36
2018-07-08T10:37:30.655Z,892.40
2018-07-08T10:38:30.645Z,892.34
2018-07-08T10:39:30.641Z,892.34
2018-07-08T10:40:51.633Z,892.32
2018-07-08T10:41:30.622Z,892.29
2018-07-08T10:42:30.619Z,892.28
2018-07-08T10:43:30.724Z,892.24
2018-07-08T10:44:30.603Z,892.27
2018-07-08T10:45:30.599Z,892.28
2018-07-08T10:46:51.600Z,892.24
2018-07-08T10:47:30.585Z,892.23
2018-07-08T10:48:30.580Z,892.24
2018-07-08T10:49:30.571Z,892.24
2018-07-08T10:50:30.568Z,892.16
2018-07-08T10:51:30.559Z,892.12
2018-07-08T10:52:51.560Z,892.14
2018-07-08T10:53:30.547Z,892.15
2018-07-08T10:54:30.535Z,892.11
2018-07-08T10:55:30.623Z,892.11
2018-07-08T10:56:30.529Z,892.14
2018-07-08T10:57:30.523Z,892.14
2018-07-08T10:58:51.518Z,892.16
2018-07-08T10:59:30.512Z,892.11
2018-07-08T11:00:30.502Z,892.08
2018-07-08T11:01:30.501Z,892.10
2018-07-08T11:02:30.492Z,892.07
2018-07-08T11:03:30.483Z,892.07
2018-07-08T11:04:51.479Z,892.07
2018-07-08T11:05:30.470Z,892.11
2018-07-08T11:06:30.467Z,892.09
2018-07-08T11:07:30.457Z,892.10
2018-07-08T11:08:30.453Z,892.04
2018-07-08T11:09:30.441Z,892.07
2018-07-08T11:10:51.446Z,892.06
2018-07-08T11:11:30.477Z,892.01
2018-07-08T11:12:30.426Z,892.03
2018-07-08T11:13:30.418Z,891.96
2018-07-08T11:14:30.418Z,891.95
2018-07-08T11:15:30.408Z,892.01
2018-07-08T11:16:51.410Z,891.96
2018-07-08T11:17:30.392Z,891.96
2018-07-08T11:18:30.386Z,891.96
2018-07-08T11:19:30.383Z,892.00
2018-07-08T11:20:30.407Z,892.02
2018-07-08T11:21:30.367Z,892.00
2018-07-08T11:22:51.363Z,891.95
2018-07-08T11:23:30.355Z,891.95
2018-07-08T11:24:30.347Z,891.96
2018-07-08T11:25:30.339Z,891.96
2018-07-08T11:26:30.339Z,891.98
2018-07-08T11:27:30.326Z,892.00
2018-07-08T11:28:51.331Z,892.01
2018-07-08T11:29:30.312Z,892.00
2018-07-08T11:30:30.310Z,891.98
2018-07-08T11:31:30.302Z,891.95
2018-07-08T11:32:30.295Z,891.93
2018-07-08T11:33:30.291Z,891.95
2018-07-08T11:34:51.290Z,891.94
2018-07-08T11:35:30.279Z,891.96
2018-07-08T11:36:30.277Z,892.01
2018-07-08T11:37:30.267Z,891.98
2018-07-08T11:38:30.256Z,891.94
2018-07-08T11:39:30.256Z,891.99
2018-07-08T11:40:51.253Z,891.93
2018-07-08T11:41:30.248Z,891.85
2018-07-08T11:42:30.240Z,891.90
2018-07-08T11:43:30.225Z,891.88
2018-07-08T11:44:30.217Z,891.89
2018-07-08T11:45:30.223Z,891.89
2018-07-08T11:46:51.225Z,891.92
2018-07-08T11:47:30.210Z,891.91
2018-07-08T11:48:30.198Z,891.91
2018-07-08T11:49:30.191Z,891.84
2018-07-08T11:50:30.189Z,891.91
2018-07-08T11:51:30.175Z,891.88
2018-07-08T11:52:51.179Z,891.93
2018-07-08T11:53:30.169Z,891.89
2018-07-08T11:54:30.159Z,891.90
2018-07-08T11:55:30.199Z,891.91
2018-07-08T11:56:30.157Z,891.87
2018-07-08T11:57:30.145Z,891.91
2018-07-08T11:58:51.139Z,891.91
2018-07-08T11:59:30.129Z,891.87
2018-07-08T12:00:30.122Z,891.87
2018-07-08T12:01:30.118Z,891.92
2018-07-08T12:02:30.113Z,891.93
2018-07-08T12:03:30.109Z,891.91
2018-07-08T12:04:51.102Z,891.87
2018-07-08T12:05:30.096Z,891.89
2018-07-08T12:06:30.208Z,891.83
2018-07-08T12:07:30.091Z,891.84
2018-07-08T12:08:30.078Z,891.86
2018-07-08T12:09:30.074Z,891.84
2018-07-08T12:10:51.075Z,891.79
2018-07-08T12:11:30.053Z,891.74
2018-07-08T12:12:30.055Z,891.80
2018-07-08T12:13:30.051Z,891.77
2018-07-08T12:14:30.076Z,891.80
2018-07-08T12:15:30.038Z,891.81
2018-07-08T12:16:51.040Z,891.81
2018-07-08T12:17:30.022Z,891.82
2018-07-08T12:18:30.022Z,891.76
2018-07-08T12:19:30.016Z,891.76
2018-07-08T12:20:30.015Z,891.78
2018-07-08T12:21:30.008Z,891.71
2018-07-08T12:22:51.002Z,891.69
2018-07-08T12:23:29.991Z,891.71
2018-07-08T12:24:29.988Z,891.80
2018-07-08T12:25:29.982Z,891.78
2018-07-08T12:26:30.936Z,891.75
2018-07-08T12:27:30.007Z,891.78
2018-07-08T12:28:50.971Z,891.76